createdAt,value
2019-05-05T00:01:14.696Z,14.70
2019-05-05T00:11:46.374Z,14.20
2019-05-05T00:17:06.296Z,14.37
2019-05-05T00:22:15.171Z,13.93
2019-05-05T00:27:21.799Z,14.03
2019-05-05T00:32:28.744Z,13.27
2019-05-05T00:37:35.394Z,13.93
2019-05-05T00:42:42.076Z,12.53
2019-05-05T00:53:00.567Z,14.10
2019-05-05T00:58:08.460Z,12.83
2019-05-05T01:03:16.032Z,13.17
2019-05-05T01:08:24.921Z,13.13
2019-05-05T01:18:36.704Z,12.10
2019-05-05T01:23:42.644Z,11.80
2019-05-05T01:28:48.599Z,13.63
2019-05-05T01:39:14.727Z,12.43
2019-05-05T01:44:21.023Z,12.93
2019-05-05T01:49:27.619Z,12.00
2019-05-05T01:54:35.308Z,12.50
2019-05-05T01:59:44.731Z,12.37
2019-05-05T02:04:50.776Z,12.80
2019-05-05T02:09:56.667Z,11.97
2019-05-05T02:15:04.230Z,12.33
2019-05-05T02:20:10.422Z,12.47
2019-05-05T02:25:16.391Z,13.30
2019-05-05T02:30:26.700Z,13.50
2019-05-05T02:35:31.659Z,13.70
2019-05-05T02:40:37.577Z,14.07
2019-05-05T02:50:57.501Z,13.27
2019-05-05T02:56:00.310Z,13.80
2019-05-05T03:06:23.874Z,14.83
2019-05-05T03:11:29.687Z,14.70
2019-05-05T03:16:35.664Z,14.90
2019-05-05T03:21:41.534Z,16.97
2019-05-05T03:26:47.700Z,17.57
2019-05-05T03:31:56.339Z,15.97
2019-05-05T03:37:01.282Z,16.03
2019-05-05T03:42:13.960Z,16.07
2019-05-05T03:47:20.039Z,17.70
2019-05-05T03:52:26.020Z,17.55
2019-05-05T03:57:33.809Z,18.02
2019-05-05T04:02:47.517Z,18.90
2019-05-05T04:07:54.534Z,17.90
2019-05-05T04:13:00.589Z,18.27
2019-05-05T04:18:10.857Z,18.10
2019-05-05T04:23:16.728Z,17.70
2019-05-05T04:28:24.090Z,18.25
2019-05-05T10:49:50.992Z,126.27
2019-05-05T10:54:57.938Z,394.77
2019-05-05T11:00:12.375Z,284.70
2019-05-05T11:05:12.993Z,228.73
2019-05-05T11:10:19.274Z,182.13
2019-05-05T11:15:25.380Z,136.83
2019-05-05T11:20:31.439Z,270.10
2019-05-05T11:25:37.918Z,108.03
2019-05-05T11:30:45.562Z,167.20
2019-05-05T11:41:00.280Z,39.53
2019-05-05T11:46:06.896Z,224.43
2019-05-05T11:56:20.367Z,279.57
2019-05-05T12:01:26.369Z,84.77
2019-05-05T12:06:33.985Z,88.20
2019-05-05T12:11:40.381Z,284.60
2019-05-05T12:16:47.557Z,108.90
2019-05-05T12:21:54.878Z,39.90
2019-05-05T12:32:25.011Z,21.17
2019-05-05T12:37:30.978Z,28.63
2019-05-05T12:42:36.870Z,14.63
2019-05-05T12:48:00.657Z,11.45
2019-05-05T12:53:06.628Z,196.40
2019-05-05T12:58:13.923Z,171.50
2019-05-05T13:03:19.902Z,215.57
2019-05-05T13:08:25.999Z,331.17
2019-05-05T13:13:34.330Z,105.83
2019-05-05T13:18:39.654Z,36.60
2019-05-05T13:23:48.600Z,16.67
2019-05-05T13:28:54.567Z,12.00
2019-05-05T13:34:01.474Z,9.77
2019-05-05T13:39:08.194Z,439.93
2019-05-05T13:44:16.202Z,149.97
2019-05-05T13:54:30.137Z,312.20
2019-05-05T13:59:36.366Z,443.00
2019-05-05T14:04:43.796Z,138.87
2019-05-05T14:09:50.362Z,376.73
2019-05-05T14:14:57.926Z,364.47
2019-05-05T14:20:09.461Z,262.70
2019-05-05T14:25:16.115Z,107.73
2019-05-05T14:35:50.131Z,213.20
2019-05-05T14:46:03.680Z,52.58
2019-05-05T14:51:09.832Z,131.90
2019-05-05T14:56:15.799Z,110.63
2019-05-05T15:11:58.701Z,50.73
2019-05-05T15:17:04.774Z,24.20
2019-05-05T15:22:19.046Z,15.10
2019-05-05T15:27:25.109Z,128.65
2019-05-05T15:37:38.042Z,187.55
2019-05-05T15:42:44.323Z,220.20
2019-05-05T15:47:51.146Z,88.77
2019-05-05T15:58:03.594Z,146.93
2019-05-05T16:03:09.879Z,158.70
2019-05-05T16:13:21.665Z,85.70
2019-05-05T16:18:38.538Z,80.77
2019-05-05T16:23:46.510Z,75.17
2019-05-05T16:28:55.014Z,109.03
2019-05-05T16:34:00.550Z,363.97
2019-05-05T16:39:07.198Z,368.90
2019-05-05T16:44:14.102Z,193.40
2019-05-05T16:49:21.140Z,90.55
2019-05-05T16:54:45.066Z,111.83
2019-05-05T17:04:56.850Z,202.37
2019-05-05T17:10:06.097Z,47.83
2019-05-05T17:15:10.452Z,20.62
2019-05-05T17:20:24.630Z,100.60
2019-05-05T17:25:30.777Z,202.67
2019-05-05T17:35:42.722Z,87.90
2019-05-05T17:40:48.674Z,105.00
2019-05-05T17:46:10.826Z,326.12
2019-05-05T17:51:16.896Z,187.05
2019-05-05T18:01:33.613Z,153.03
2019-05-05T18:06:46.794Z,250.83
2019-05-05T18:12:10.902Z,196.20
2019-05-05T18:17:17.200Z,443.00
2019-05-05T18:27:31.681Z,235.07
2019-05-05T18:32:40.202Z,177.03
2019-05-05T18:37:46.213Z,200.80
2019-05-05T18:48:00.165Z,175.23
2019-05-05T18:53:06.321Z,271.60
2019-05-05T18:58:12.830Z,342.17
2019-05-05T19:08:28.555Z,111.03
2019-05-05T19:18:48.259Z,111.93
2019-05-05T19:23:55.250Z,178.50
2019-05-05T19:29:04.401Z,201.43
2019-05-05T19:34:14.442Z,97.07
2019-05-05T19:39:20.765Z,127.00
2019-05-05T19:44:28.773Z,101.07
2019-05-05T19:49:35.203Z,144.80
2019-05-05T19:59:46.889Z,217.03
2019-05-05T20:04:53.659Z,152.13
2019-05-05T20:09:59.774Z,142.03
2019-05-05T20:15:07.465Z,168.83
2019-05-05T20:20:13.917Z,185.30
2019-05-05T20:25:20.434Z,174.30
2019-05-05T20:30:26.614Z,155.00
2019-05-05T20:35:33.812Z,262.43
2019-05-05T20:40:41.525Z,174.83
2019-05-05T20:45:47.629Z,119.70
2019-05-05T20:50:54.683Z,80.30
2019-05-05T20:56:00.790Z,63.23
2019-05-05T21:01:06.854Z,49.63
2019-05-05T21:06:13.865Z,41.97
2019-05-05T21:11:20.063Z,40.30
2019-05-05T21:16:26.576Z,36.27
2019-05-05T21:21:35.677Z,36.37
2019-05-05T21:26:55.484Z,33.73
2019-05-05T21:32:01.520Z,32.13
2019-05-05T21:37:07.481Z,31.40
2019-05-05T21:42:14.148Z,30.30
2019-05-05T21:47:20.345Z,28.20
2019-05-05T21:52:30.617Z,29.50
2019-05-05T21:57:41.095Z,27.40
2019-05-05T22:07:53.869Z,26.20
2019-05-05T22:13:00.012Z,25.70
2019-05-05T22:18:05.991Z,24.60
2019-05-05T22:23:11.906Z,23.38
2019-05-05T22:28:17.747Z,23.63
2019-05-05T22:33:24.684Z,23.30
2019-05-05T22:38:31.042Z,21.87
2019-05-05T22:43:37.037Z,22.50
2019-05-05T22:48:44.038Z,21.60
2019-05-05T22:53:50.078Z,22.20
2019-05-05T22:59:10.552Z,19.15
2019-05-05T23:04:24.411Z,19.80
2019-05-05T23:09:30.558Z,19.73
2019-05-05T23:14:36.355Z,19.73
2019-05-05T23:19:56.468Z,19.63
2019-05-05T23:25:04.232Z,18.03
2019-05-05T23:30:10.684Z,17.40
2019-05-05T23:35:16.633Z,17.30
2019-05-05T23:40:24.560Z,17.33
2019-05-05T23:45:30.521Z,17.13
2019-05-05T23:50:36.690Z,16.27
2019-05-05T23:55:44.082Z,16.57
